Greenbush, Vermont
Current Conditions -  °F | °C
As of 10:54 AM on Friday 31 Oct 2014 (Local Time) from KVSF Reporting Station
Overcast Overcast  
Wind Chill: 45°   Ceiling: 4900
Heat Index: 45°   Visibility: 10mi
Dew Point: 34°   Wind: 3mph
Humidity: 65%   Direction: 160°SSE
Pressure: 30.04"   Gusts: NA
Location:  43.3938°N, 72.5025°W
Report Text: KVSF 311454Z AUTO 16003KT 10SM SCT037 OVC049 07/01 A3004 RMK AO2 SLP177 T00720011 58002
Loading
Personal Weather Stations






























Interactive Weather Map
Tropical Storm Tracking
New forecast layout! Learn more

10-Day Weather Forecast

Advertisements
Track Severe Weather on mobile